sensor_id;sensor_type;location;lat;lon;timestamp;pressure;altitude;pressure_sealevel;temperature;humidity
41040;BME280;48586;50.122;18.972;2022-12-05T00:00:36;98993.53;;;2.24;66.21
41040;BME280;48586;50.122;18.972;2022-12-05T00:02:56;98994.03;;;2.28;66.38
41040;BME280;48586;50.122;18.972;2022-12-05T00:05:16;98993.88;;;2.30;66.17
41040;BME280;48586;50.122;18.972;2022-12-05T00:07:36;98995.84;;;2.28;65.99
41040;BME280;48586;50.122;18.972;2022-12-05T00:09:56;98997.78;;;2.34;66.08
41040;BME280;48586;50.122;18.972;2022-12-05T00:12:24;99000.41;;;2.34;65.80
41040;BME280;48586;50.122;18.972;2022-12-05T00:14:43;98993.53;;;2.33;65.91
41040;BME280;48586;50.122;18.972;2022-12-05T00:17:02;98988.63;;;2.30;65.81
41040;BME280;48586;50.122;18.972;2022-12-05T00:19:22;98994.03;;;2.28;66.04
41040;BME280;48586;50.122;18.972;2022-12-05T00:21:42;98988.44;;;2.23;66.16
41040;BME280;48586;50.122;18.972;2022-12-05T00:24:03;98993.22;;;2.19;66.01
41040;BME280;48586;50.122;18.972;2022-12-05T00:26:25;98996.34;;;2.15;65.81
41040;BME280;48586;50.122;18.972;2022-12-05T00:28:48;98984.84;;;2.08;65.97
41040;BME280;48586;50.122;18.972;2022-12-05T00:31:14;98971.25;;;2.04;66.19
41040;BME280;48586;50.122;18.972;2022-12-05T00:33:35;98965.31;;;2.02;66.04
41040;BME280;48586;50.122;18.972;2022-12-05T00:35:55;98963.50;;;2.03;66.41
41040;BME280;48586;50.122;18.972;2022-12-05T00:38:20;98973.19;;;2.02;66.29
41040;BME280;48586;50.122;18.972;2022-12-05T00:40:39;98983.38;;;2.05;66.38
41040;BME280;48586;50.122;18.972;2022-12-05T00:42:58;98976.00;;;2.09;66.29
41040;BME280;48586;50.122;18.972;2022-12-05T00:45:21;98972.19;;;2.11;66.13
41040;BME280;48586;50.122;18.972;2022-12-05T00:47:40;98974.00;;;2.11;66.15
41040;BME280;48586;50.122;18.972;2022-12-05T00:49:59;98969.75;;;2.10;66.25
41040;BME280;48586;50.122;18.972;2022-12-05T00:52:21;98973.19;;;2.10;66.23
41040;BME280;48586;50.122;18.972;2022-12-05T00:54:41;98977.94;;;2.07;66.05
41040;BME280;48586;50.122;18.972;2022-12-05T00:57:00;98980.75;;;2.05;66.12
41040;BME280;48586;50.122;18.972;2022-12-05T00:59:20;98977.31;;;2.05;66.08
41040;BME280;48586;50.122;18.972;2022-12-05T01:01:44;98966.81;;;2.05;66.18
41040;BME280;48586;50.122;18.972;2022-12-05T01:04:08;98970.88;;;2.07;66.18
41040;BME280;48586;50.122;18.972;2022-12-05T01:06:30;98959.75;;;2.05;66.37
41040;BME280;48586;50.122;18.972;2022-12-05T01:08:51;98962.69;;;2.02;66.40
41040;BME280;48586;50.122;18.972;2022-12-05T01:11:14;98963.69;;;2.01;66.37
41040;BME280;48586;50.122;18.972;2022-12-05T01:13:35;98950.72;;;2.00;66.50
41040;BME280;48586;50.122;18.972;2022-12-05T01:15:56;98950.03;;;1.97;66.53
41040;BME280;48586;50.122;18.972;2022-12-05T01:18:20;98937.22;;;1.94;66.39
41040;BME280;48586;50.122;18.972;2022-12-05T01:20:41;98944.47;;;1.92;66.80
41040;BME280;48586;50.122;18.972;2022-12-05T01:23:00;98939.22;;;1.92;66.86
41040;BME280;48586;50.122;18.972;2022-12-05T01:25:20;98939.03;;;1.94;66.56
41040;BME280;48586;50.122;18.972;2022-12-05T01:27:39;98943.81;;;1.90;66.40
41040;BME280;48586;50.122;18.972;2022-12-05T01:29:59;98939.91;;;1.86;66.90
41040;BME280;48586;50.122;18.972;2022-12-05T01:32:22;98947.28;;;1.83;66.83
41040;BME280;48586;50.122;18.972;2022-12-05T01:34:44;98943.47;;;1.85;67.00
41040;BME280;48586;50.122;18.972;2022-12-05T01:37:03;98956.63;;;1.85;66.86
41040;BME280;48586;50.122;18.972;2022-12-05T01:39:22;98948.91;;;1.84;66.88
41040;BME280;48586;50.122;18.972;2022-12-05T01:41:44;98936.91;;;1.81;66.86
41040;BME280;48586;50.122;18.972;2022-12-05T01:47:46;98941.69;;;1.78;67.01
41040;BME280;48586;50.122;18.972;2022-12-05T01:50:11;98937.09;;;1.80;66.92
41040;BME280;48586;50.122;18.972;2022-12-05T01:52:32;98933.47;;;1.81;66.88
41040;BME280;48586;50.122;18.972;2022-12-05T01:54:58;98921.84;;;1.75;66.74
41040;BME280;48586;50.122;18.972;2022-12-05T01:57:19;98928.22;;;1.72;66.88
41040;BME280;48586;50.122;18.972;2022-12-05T01:59:43;98931.84;;;1.71;67.11
41040;BME280;48586;50.122;18.972;2022-12-05T02:02:07;98933.34;;;1.74;67.30
41040;BME280;48586;50.122;18.972;2022-12-05T02:04:27;98932.34;;;1.75;67.21
41040;BME280;48586;50.122;18.972;2022-12-05T02:06:49;98950.53;;;1.77;67.04
41040;BME280;48586;50.122;18.972;2022-12-05T02:09:09;98951.22;;;1.79;67.25
41040;BME280;48586;50.122;18.972;2022-12-05T02:11:31;98950.72;;;1.83;67.13
41040;BME280;48586;50.122;18.972;2022-12-05T02:14:09;98957.78;;;1.91;66.87
41040;BME280;48586;50.122;18.972;2022-12-05T02:16:48;98964.00;;;1.98;66.72
41040;BME280;48586;50.122;18.972;2022-12-05T02:19:36;98966.00;;;2.04;66.47
41040;BME280;48586;50.122;18.972;2022-12-05T02:25:12;98952.50;;;2.07;66.16
41040;BME280;48586;50.122;18.972;2022-12-05T02:27:47;98957.09;;;2.05;66.11
41040;BME280;48586;50.122;18.972;2022-12-05T02:30:11;98963.00;;;2.07;66.11
41040;BME280;48586;50.122;18.972;2022-12-05T02:32:30;98959.25;;;2.10;66.21
41040;BME280;48586;50.122;18.972;2022-12-05T02:34:46;98960.72;;;2.12;65.95
41040;BME280;48586;50.122;18.972;2022-12-05T02:37:05;98956.28;;;2.13;66.03
41040;BME280;48586;50.122;18.972;2022-12-05T02:39:20;98951.84;;;2.13;66.11
41040;BME280;48586;50.122;18.972;2022-12-05T02:41:35;98942.16;;;2.14;65.97
41040;BME280;48586;50.122;18.972;2022-12-05T02:43:51;98943.47;;;2.10;65.93
41040;BME280;48586;50.122;18.972;2022-12-05T02:46:07;98948.22;;;2.06;66.17
41040;BME280;48586;50.122;18.972;2022-12-05T02:48:17;98954.47;;;2.05;66.37
41040;BME280;48586;50.122;18.972;2022-12-05T02:50:30;98950.03;;;2.06;66.31
41040;BME280;48586;50.122;18.972;2022-12-05T02:52:37;98942.66;;;2.09;66.30
41040;BME280;48586;50.122;18.972;2022-12-05T02:54:47;98939.22;;;2.09;66.44
41040;BME280;48586;50.122;18.972;2022-12-05T02:56:54;98943.66;;;2.08;66.25
41040;BME280;48586;50.122;18.972;2022-12-05T02:59:02;98941.66;;;2.10;66.49
41040;BME280;48586;50.122;18.972;2022-12-05T03:01:11;98951.84;;;2.13;66.48
41040;BME280;48586;50.122;18.972;2022-12-05T03:03:20;98949.22;;;2.13;66.20
41040;BME280;48586;50.122;18.972;2022-12-05T03:05:34;98949.84;;;2.15;66.24
41040;BME280;48586;50.122;18.972;2022-12-05T03:07:47;98959.22;;;2.18;66.41
41040;BME280;48586;50.122;18.972;2022-12-05T03:09:57;98963.31;;;2.20;66.05
41040;BME280;48586;50.122;18.972;2022-12-05T03:12:09;98964.63;;;2.24;66.14
41040;BME280;48586;50.122;18.972;2022-12-05T03:14:22;98967.41;;;2.31;65.85
41040;BME280;48586;50.122;18.972;2022-12-05T03:16:37;98963.97;;;2.31;66.03
41040;BME280;48586;50.122;18.972;2022-12-05T03:18:48;98963.97;;;2.31;65.59
41040;BME280;48586;50.122;18.972;2022-12-05T03:21:03;98952.78;;;2.29;65.65
41040;BME280;48586;50.122;18.972;2022-12-05T03:23:22;98946.06;;;2.26;65.70
41040;BME280;48586;50.122;18.972;2022-12-05T03:25:38;98951.34;;;2.26;65.86
41040;BME280;48586;50.122;18.972;2022-12-05T03:27:51;98942.94;;;2.22;66.11
41040;BME280;48586;50.122;18.972;2022-12-05T03:30:01;98944.09;;;2.28;65.90
41040;BME280;48586;50.122;18.972;2022-12-05T03:32:20;98941.63;;;2.27;65.95
41040;BME280;48586;50.122;18.972;2022-12-05T03:34:36;98954.28;;;2.23;65.70
41040;BME280;48586;50.122;18.972;2022-12-05T03:36:48;98943.78;;;2.23;66.05
41040;BME280;48586;50.122;18.972;2022-12-05T03:39:02;98942.94;;;2.22;65.98
41040;BME280;48586;50.122;18.972;2022-12-05T03:41:21;98944.91;;;2.20;65.83
41040;BME280;48586;50.122;18.972;2022-12-05T03:43:34;98942.63;;;2.17;65.86
41040;BME280;48586;50.122;18.972;2022-12-05T03:45:47;98951.34;;;2.18;65.89
41040;BME280;48586;50.122;18.972;2022-12-05T03:48:06;98937.22;;;2.19;66.11
41040;BME280;48586;50.122;18.972;2022-12-05T03:50:20;98921.63;;;2.17;66.09
41040;BME280;48586;50.122;18.972;2022-12-05T03:52:31;98919.81;;;2.18;65.94
41040;BME280;48586;50.122;18.972;2022-12-05T03:54:44;98919.81;;;2.18;65.94
41040;BME280;48586;50.122;18.972;2022-12-05T03:56:58;98918.16;;;2.17;66.02
41040;BME280;48586;50.122;18.972;2022-12-05T03:59:13;98922.75;;;2.15;65.80
41040;BME280;48586;50.122;18.972;2022-12-05T04:01:26;98917.81;;;2.12;65.79
41040;BME280;48586;50.122;18.972;2022-12-05T04:03:39;98920.63;;;2.10;66.32
41040;BME280;48586;50.122;18.972;2022-12-05T04:05:51;98919.00;;;2.09;66.36
41040;BME280;48586;50.122;18.972;2022-12-05T04:08:01;98924.41;;;2.08;66.18
41040;BME280;48586;50.122;18.972;2022-12-05T04:10:13;98912.44;;;2.05;66.12
41040;BME280;48586;50.122;18.972;2022-12-05T04:12:24;98922.94;;;2.05;66.09
41040;BME280;48586;50.122;18.972;2022-12-05T04:14:36;98929.03;;;2.06;66.48
41040;BME280;48586;50.122;18.972;2022-12-05T04:16:48;98930.84;;;2.05;66.23
41040;BME280;48586;50.122;18.972;2022-12-05T04:19:09;98921.31;;;2.04;66.18
41040;BME280;48586;50.122;18.972;2022-12-05T04:21:21;98918.34;;;1.99;66.30
41040;BME280;48586;50.122;18.972;2022-12-05T04:23:41;98902.63;;;1.91;66.65
41040;BME280;48586;50.122;18.972;2022-12-05T04:26:12;98914.09;;;1.90;66.87
41040;BME280;48586;50.122;18.972;2022-12-05T04:28:31;98916.91;;;1.88;66.98
41040;BME280;48586;50.122;18.972;2022-12-05T04:30:40;98915.41;;;1.94;66.93
41040;BME280;48586;50.122;18.972;2022-12-05T04:32:56;98918.19;;;2.01;66.87
41040;BME280;48586;50.122;18.972;2022-12-05T04:35:13;98913.56;;;2.03;66.51
41040;BME280;48586;50.122;18.972;2022-12-05T04:37:23;98901.94;;;2.05;66.58
41040;BME280;48586;50.122;18.972;2022-12-05T04:39:35;98896.34;;;2.08;66.63
41040;BME280;48586;50.122;18.972;2022-12-05T04:41:49;98896.97;;;2.10;66.29
41040;BME280;48586;50.122;18.972;2022-12-05T04:44:00;98905.53;;;2.12;66.46
41040;BME280;48586;50.122;18.972;2022-12-05T04:46:10;98902.72;;;2.14;66.24
41040;BME280;48586;50.122;18.972;2022-12-05T04:48:20;98912.13;;;2.08;66.08
41040;BME280;48586;50.122;18.972;2022-12-05T04:50:32;98908.50;;;2.09;66.27
41040;BME280;48586;50.122;18.972;2022-12-05T04:52:38;98906.50;;;2.11;66.34
41040;BME280;48586;50.122;18.972;2022-12-05T04:54:49;98905.69;;;2.11;66.22
41040;BME280;48586;50.122;18.972;2022-12-05T04:57:04;98915.38;;;2.10;66.26
41040;BME280;48586;50.122;18.972;2022-12-05T04:59:13;98915.69;;;2.07;66.00
41040;BME280;48586;50.122;18.972;2022-12-05T05:01:23;98916.88;;;2.05;66.35
41040;BME280;48586;50.122;18.972;2022-12-05T05:03:35;98919.50;;;2.05;66.34
41040;BME280;48586;50.122;18.972;2022-12-05T05:05:48;98915.56;;;2.09;66.62
41040;BME280;48586;50.122;18.972;2022-12-05T05:07:55;98909.31;;;2.10;66.01
41040;BME280;48586;50.122;18.972;2022-12-05T05:09:59;98921.63;;;2.09;66.50
41040;BME280;48586;50.122;18.972;2022-12-05T05:12:04;98918.00;;;2.10;66.13
41040;BME280;48586;50.122;18.972;2022-12-05T05:14:10;98916.69;;;2.14;66.24
41040;BME280;48586;50.122;18.972;2022-12-05T05:16:16;98913.06;;;2.15;66.18
41040;BME280;48586;50.122;18.972;2022-12-05T05:18:22;98910.28;;;2.17;66.23
41040;BME280;48586;50.122;18.972;2022-12-05T05:20:26;98910.91;;;2.19;66.27
41040;BME280;48586;50.122;18.972;2022-12-05T05:22:33;98915.19;;;2.20;65.99
41040;BME280;48586;50.122;18.972;2022-12-05T05:24:37;98914.84;;;2.23;66.38
41040;BME280;48586;50.122;18.972;2022-12-05T05:26:44;98907.16;;;2.21;66.17
41040;BME280;48586;50.122;18.972;2022-12-05T05:28:49;98907.47;;;2.18;66.22
41040;BME280;48586;50.122;18.972;2022-12-05T05:30:54;98903.38;;;2.16;66.44
41040;BME280;48586;50.122;18.972;2022-12-05T05:32:59;98900.09;;;2.14;66.06
41040;BME280;48586;50.122;18.972;2022-12-05T05:35:04;98903.53;;;2.14;66.36
41040;BME280;48586;50.122;18.972;2022-12-05T05:37:09;98898.47;;;2.13;66.20
41040;BME280;48586;50.122;18.972;2022-12-05T05:39:16;98901.09;;;2.13;66.51
41040;BME280;48586;50.122;18.972;2022-12-05T05:41:22;98894.03;;;2.13;66.43
41040;BME280;48586;50.122;18.972;2022-12-05T05:43:27;98892.03;;;2.15;66.60
41040;BME280;48586;50.122;18.972;2022-12-05T05:45:32;98891.72;;;2.18;66.12
41040;BME280;48586;50.122;18.972;2022-12-05T05:47:37;98895.97;;;2.19;66.54
41040;BME280;48586;50.122;18.972;2022-12-05T05:49:42;98891.72;;;2.18;66.17
41040;BME280;48586;50.122;18.972;2022-12-05T05:51:47;98882.81;;;2.19;66.46
41040;BME280;48586;50.122;18.972;2022-12-05T05:53:52;98881.19;;;2.18;66.20
41040;BME280;48586;50.122;18.972;2022-12-05T05:56:01;98878.25;;;2.21;66.36
41040;BME280;48586;50.122;18.972;2022-12-05T05:58:08;98876.44;;;2.22;66.16
41040;BME280;48586;50.122;18.972;2022-12-05T06:00:14;98891.19;;;2.23;66.24
41040;BME280;48586;50.122;18.972;2022-12-05T06:02:19;98887.44;;;2.26;66.12
41040;BME280;48586;50.122;18.972;2022-12-05T06:04:25;98895.94;;;2.28;66.23
41040;BME280;48586;50.122;18.972;2022-12-05T06:06:30;98887.06;;;2.29;66.06
41040;BME280;48586;50.122;18.972;2022-12-05T06:08:37;98893.31;;;2.28;66.06
41040;BME280;48586;50.122;18.972;2022-12-05T06:10:43;98895.94;;;2.28;66.12
41040;BME280;48586;50.122;18.972;2022-12-05T06:12:51;98890.38;;;2.31;66.11
41040;BME280;48586;50.122;18.972;2022-12-05T06:14:55;98888.88;;;2.28;65.85
41040;BME280;48586;50.122;18.972;2022-12-05T06:17:00;98890.69;;;2.28;66.02
41040;BME280;48586;50.122;18.972;2022-12-05T06:19:05;98899.56;;;2.27;66.42
41040;BME280;48586;50.122;18.972;2022-12-05T06:21:10;98896.94;;;2.27;66.07
41040;BME280;48586;50.122;18.972;2022-12-05T06:23:15;98896.28;;;2.24;66.16
41040;BME280;48586;50.122;18.972;2022-12-05T06:25:19;98899.56;;;2.27;66.31
41040;BME280;48586;50.122;18.972;2022-12-05T06:27:24;98897.59;;;2.29;66.24
41040;BME280;48586;50.122;18.972;2022-12-05T06:29:33;98900.88;;;2.31;66.03
41040;BME280;48586;50.122;18.972;2022-12-05T06:31:37;98907.78;;;2.32;66.14
41040;BME280;48586;50.122;18.972;2022-12-05T06:33:41;98897.59;;;2.29;66.12
41040;BME280;48586;50.122;18.972;2022-12-05T06:35:47;98896.94;;;2.27;66.11
41040;BME280;48586;50.122;18.972;2022-12-05T06:37:51;98903.84;;;2.28;66.48
41040;BME280;48586;50.122;18.972;2022-12-05T06:39:55;98906.94;;;2.31;66.41
41040;BME280;48586;50.122;18.972;2022-12-05T06:42:00;98921.25;;;2.29;66.10
41040;BME280;48586;50.122;18.972;2022-12-05T06:44:05;98922.41;;;2.26;66.36
41040;BME280;48586;50.122;18.972;2022-12-05T06:46:12;98928.50;;;2.27;66.28
41040;BME280;48586;50.122;18.972;2022-12-05T06:48:18;98920.94;;;2.23;66.23
41040;BME280;48586;50.122;18.972;2022-12-05T06:50:22;98915.66;;;2.23;66.15
41040;BME280;48586;50.122;18.972;2022-12-05T06:52:26;98918.63;;;2.20;66.32
41040;BME280;48586;50.122;18.972;2022-12-05T06:54:31;98924.88;;;2.19;66.51
41040;BME280;48586;50.122;18.972;2022-12-05T06:56:35;98923.06;;;2.20;66.63
41040;BME280;48586;50.122;18.972;2022-12-05T06:58:41;98921.25;;;2.20;66.73
41040;BME280;48586;50.122;18.972;2022-12-05T07:00:47;98913.22;;;2.22;66.93
41040;BME280;48586;50.122;18.972;2022-12-05T07:03:09;98918.31;;;2.23;66.51
41040;BME280;48586;50.122;18.972;2022-12-05T07:05:14;98916.84;;;2.21;66.66
41040;BME280;48586;50.122;18.972;2022-12-05T07:07:19;98916.00;;;2.20;66.62
41040;BME280;48586;50.122;18.972;2022-12-05T07:09:25;98917.66;;;2.21;66.69
41040;BME280;48586;50.122;18.972;2022-12-05T07:11:46;98915.66;;;2.23;66.65
41040;BME280;48586;50.122;18.972;2022-12-05T07:13:53;98916.50;;;2.24;66.52
41040;BME280;48586;50.122;18.972;2022-12-05T07:15:57;98914.34;;;2.28;66.66
41040;BME280;48586;50.122;18.972;2022-12-05T07:18:03;98914.69;;;2.24;66.37
41040;BME280;48586;50.122;18.972;2022-12-05T07:20:11;98919.94;;;2.24;66.58
41040;BME280;48586;50.122;18.972;2022-12-05T07:22:19;98926.19;;;2.23;66.62
41040;BME280;48586;50.122;18.972;2022-12-05T07:24:24;98917.31;;;2.24;66.88
41040;BME280;48586;50.122;18.972;2022-12-05T07:26:30;98917.78;;;2.28;66.58
41040;BME280;48586;50.122;18.972;2022-12-05T07:28:34;98922.91;;;2.30;66.76
41040;BME280;48586;50.122;18.972;2022-12-05T07:30:39;98922.91;;;2.30;66.70
41040;BME280;48586;50.122;18.972;2022-12-05T07:32:45;98909.41;;;2.33;66.75
41040;BME280;48586;50.122;18.972;2022-12-05T07:34:50;98913.03;;;2.32;66.55
41040;BME280;48586;50.122;18.972;2022-12-05T07:36:57;98920.72;;;2.33;66.44
41040;BME280;48586;50.122;18.972;2022-12-05T07:39:03;98926.47;;;2.37;66.24
41040;BME280;48586;50.122;18.972;2022-12-05T07:41:18;98934.84;;;2.40;66.40
41040;BME280;48586;50.122;18.972;2022-12-05T07:43:24;98925.63;;;2.44;66.50
41040;BME280;48586;50.122;18.972;2022-12-05T07:45:29;98925.47;;;2.46;66.24
41040;BME280;48586;50.122;18.972;2022-12-05T07:47:34;98930.72;;;2.46;66.22
41040;BME280;48586;50.122;18.972;2022-12-05T07:49:38;98923.81;;;2.45;66.14
41040;BME280;48586;50.122;18.972;2022-12-05T07:51:43;98923.00;;;2.44;66.12
41040;BME280;48586;50.122;18.972;2022-12-05T07:53:50;98923.81;;;2.45;66.28
41040;BME280;48586;50.122;18.972;2022-12-05T07:55:54;98924.50;;;2.47;66.35
41040;BME280;48586;50.122;18.972;2022-12-05T07:57:59;98929.56;;;2.48;66.26
41040;BME280;48586;50.122;18.972;2022-12-05T08:00:04;98924.31;;;2.48;66.11
41040;BME280;48586;50.122;18.972;2022-12-05T08:02:13;98926.44;;;2.53;66.25
41040;BME280;48586;50.122;18.972;2022-12-05T08:04:18;98926.91;;;2.57;66.16
41040;BME280;48586;50.122;18.972;2022-12-05T08:06:24;98925.75;;;2.59;66.25
41040;BME280;48586;50.122;18.972;2022-12-05T08:08:30;98933.97;;;2.64;66.05
41040;BME280;48586;50.122;18.972;2022-12-05T08:10:38;98925.72;;;2.67;66.16
41040;BME280;48586;50.122;18.972;2022-12-05T08:12:42;98933.75;;;2.74;66.23
41040;BME280;48586;50.122;18.972;2022-12-05T08:14:46;98936.50;;;2.81;65.87
41040;BME280;48586;50.122;18.972;2022-12-05T08:16:51;98930.72;;;2.85;65.92
41040;BME280;48586;50.122;18.972;2022-12-05T08:18:58;98932.69;;;2.91;65.60
41040;BME280;48586;50.122;18.972;2022-12-05T08:21:05;98922.78;;;2.93;65.17
41040;BME280;48586;50.122;18.972;2022-12-05T08:23:11;98920.69;;;2.89;65.14
41040;BME280;48586;50.122;18.972;2022-12-05T08:25:16;98925.13;;;2.88;65.05
41040;BME280;48586;50.122;18.972;2022-12-05T08:27:23;98923.81;;;2.84;65.18
41040;BME280;48586;50.122;18.972;2022-12-05T08:29:28;98927.78;;;2.80;65.13
41040;BME280;48586;50.122;18.972;2022-12-05T08:31:37;98939.63;;;2.84;65.46
41040;BME280;48586;50.122;18.972;2022-12-05T08:33:43;98932.72;;;2.83;65.39
41040;BME280;48586;50.122;18.972;2022-12-05T08:35:48;98933.88;;;2.81;65.26
41040;BME280;48586;50.122;18.972;2022-12-05T08:37:53;98929.78;;;2.78;65.14
41040;BME280;48586;50.122;18.972;2022-12-05T08:39:58;98926.84;;;2.73;65.32
41040;BME280;48586;50.122;18.972;2022-12-05T08:42:03;98922.94;;;2.69;65.81
41040;BME280;48586;50.122;18.972;2022-12-05T08:44:11;98921.44;;;2.66;65.75
41040;BME280;48586;50.122;18.972;2022-12-05T08:46:16;98930.34;;;2.65;65.87
41040;BME280;48586;50.122;18.972;2022-12-05T08:48:24;98921.44;;;2.66;65.93
41040;BME280;48586;50.122;18.972;2022-12-05T08:50:29;98930.81;;;2.69;65.81
41040;BME280;48586;50.122;18.972;2022-12-05T08:52:33;98926.00;;;2.72;66.11
41040;BME280;48586;50.122;18.972;2022-12-05T08:54:38;98940.47;;;2.77;66.02
41040;BME280;48586;50.122;18.972;2022-12-05T08:56:43;98933.72;;;2.82;66.12
41040;BME280;48586;50.122;18.972;2022-12-05T08:58:48;98942.53;;;2.89;65.93
41040;BME280;48586;50.122;18.972;2022-12-05T09:01:02;98939.06;;;2.97;65.24
41040;BME280;48586;50.122;18.972;2022-12-05T09:03:09;98930.84;;;3.00;65.29
41040;BME280;48586;50.122;18.972;2022-12-05T09:05:14;98918.78;;;3.06;65.67
41040;BME280;48586;50.122;18.972;2022-12-05T09:07:18;98924.22;;;3.12;65.25
41040;BME280;48586;50.122;18.972;2022-12-05T09:09:23;98920.25;;;3.16;64.88
41040;BME280;48586;50.122;18.972;2022-12-05T09:11:32;98928.25;;;3.23;65.06
41040;BME280;48586;50.122;18.972;2022-12-05T09:13:37;98929.34;;;3.29;65.00
41040;BME280;48586;50.122;18.972;2022-12-05T09:15:42;98932.31;;;3.34;64.98
41040;BME280;48586;50.122;18.972;2022-12-05T09:18:08;98933.59;;;3.38;64.47
41040;BME280;48586;50.122;18.972;2022-12-05T09:20:12;98938.69;;;3.39;64.71
41040;BME280;48586;50.122;18.972;2022-12-05T09:22:19;98931.06;;;3.44;64.77
41040;BME280;48586;50.122;18.972;2022-12-05T09:24:24;98913.75;;;3.50;64.25
41040;BME280;48586;50.122;18.972;2022-12-05T09:26:28;98928.38;;;3.53;64.12
41040;BME280;48586;50.122;18.972;2022-12-05T09:28:33;98925.75;;;3.53;64.10
41040;BME280;48586;50.122;18.972;2022-12-05T09:30:38;98922.47;;;3.51;63.89
41040;BME280;48586;50.122;18.972;2022-12-05T09:32:43;98920.66;;;3.51;64.25
41040;BME280;48586;50.122;18.972;2022-12-05T09:34:51;98918.38;;;3.48;63.92
41040;BME280;48586;50.122;18.972;2022-12-05T09:36:55;98922.47;;;3.51;64.32
41040;BME280;48586;50.122;18.972;2022-12-05T09:39:04;98915.41;;;3.51;64.20
41040;BME280;48586;50.122;18.972;2022-12-05T09:41:28;98916.38;;;3.50;64.23
41040;BME280;48586;50.122;18.972;2022-12-05T09:44:01;98902.84;;;3.53;64.05
41040;BME280;48586;50.122;18.972;2022-12-05T09:46:20;98904.50;;;3.54;64.05
41040;BME280;48586;50.122;18.972;2022-12-05T09:48:30;98910.88;;;3.60;64.08
41040;BME280;48586;50.122;18.972;2022-12-05T09:50:43;98900.63;;;3.65;63.98
41040;BME280;48586;50.122;18.972;2022-12-05T09:53:05;98905.38;;;3.69;64.21
41040;BME280;48586;50.122;18.972;2022-12-05T09:55:16;98915.19;;;3.76;64.04
41040;BME280;48586;50.122;18.972;2022-12-05T09:57:31;98909.84;;;3.84;63.88
41040;BME280;48586;50.122;18.972;2022-12-05T09:59:38;98904.84;;;3.89;63.37
41040;BME280;48586;50.122;18.972;2022-12-05T10:01:51;98898.13;;;3.86;63.43
41040;BME280;48586;50.122;18.972;2022-12-05T10:06:40;98894.50;;;3.87;63.78
41040;BME280;48586;50.122;18.972;2022-12-05T10:09:09;98897.78;;;3.89;63.64
41040;BME280;48586;50.122;18.972;2022-12-05T10:11:29;98893.75;;;3.93;63.75
41040;BME280;48586;50.122;18.972;2022-12-05T10:13:47;98899.88;;;3.94;63.45
41040;BME280;48586;50.122;18.972;2022-12-05T10:16:02;98887.34;;;3.96;63.16
41040;BME280;48586;50.122;18.972;2022-12-05T10:18:16;98899.88;;;3.94;63.15
41040;BME280;48586;50.122;18.972;2022-12-05T10:20:35;98891.97;;;3.94;63.50
41040;BME280;48586;50.122;18.972;2022-12-05T10:22:49;98893.88;;;4.00;63.54
41040;BME280;48586;50.122;18.972;2022-12-05T10:25:01;98894.16;;;4.05;63.36
41040;BME280;48586;50.122;18.972;2022-12-05T10:27:17;98885.69;;;4.10;63.43
41040;BME280;48586;50.122;18.972;2022-12-05T10:29:28;98900.16;;;4.14;63.06
41040;BME280;48586;50.122;18.972;2022-12-05T10:31:37;98890.63;;;4.13;62.92
41040;BME280;48586;50.122;18.972;2022-12-05T10:33:50;98888.59;;;4.15;62.88
41040;BME280;48586;50.122;18.972;2022-12-05T10:35:58;98894.34;;;4.18;63.03
41040;BME280;48586;50.122;18.972;2022-12-05T10:38:10;98895.63;;;4.22;62.51
41040;BME280;48586;50.122;18.972;2022-12-05T10:40:18;98880.19;;;4.19;62.62
41040;BME280;48586;50.122;18.972;2022-12-05T10:42:28;98879.06;;;4.14;62.64
41040;BME280;48586;50.122;18.972;2022-12-05T10:44:36;98876.97;;;4.09;62.91
41040;BME280;48586;50.122;18.972;2022-12-05T10:46:41;98880.63;;;4.08;63.11
41040;BME280;48586;50.122;18.972;2022-12-05T10:48:45;98874.16;;;4.11;63.22
41040;BME280;48586;50.122;18.972;2022-12-05T10:50:52;98881.53;;;4.15;63.47
41040;BME280;48586;50.122;18.972;2022-12-05T10:52:59;98882.44;;;4.22;63.15
41040;BME280;48586;50.122;18.972;2022-12-05T10:55:14;98877.81;;;4.24;62.80
41040;BME280;48586;50.122;18.972;2022-12-05T10:57:22;98880.44;;;4.24;62.83
41040;BME280;48586;50.122;18.972;2022-12-05T10:59:44;98879.44;;;4.26;62.87
41040;BME280;48586;50.122;18.972;2022-12-05T11:01:55;98876.44;;;4.29;63.01
41040;BME280;48586;50.122;18.972;2022-12-05T11:04:18;98870.97;;;4.30;62.96
41040;BME280;48586;50.122;18.972;2022-12-05T11:06:28;98866.72;;;4.29;62.63
41040;BME280;48586;50.122;18.972;2022-12-05T11:08:33;98872.59;;;4.31;62.99
41040;BME280;48586;50.122;18.972;2022-12-05T11:10:40;98866.63;;;4.37;63.00
41040;BME280;48586;50.122;18.972;2022-12-05T11:12:45;98868.88;;;4.40;62.81
41040;BME280;48586;50.122;18.972;2022-12-05T11:14:56;98870.16;;;4.44;62.86
41040;BME280;48586;50.122;18.972;2022-12-05T11:17:04;98870.78;;;4.46;62.70
41040;BME280;48586;50.122;18.972;2022-12-05T11:19:25;98868.41;;;4.52;62.65
41040;BME280;48586;50.122;18.972;2022-12-05T11:21:41;98873.50;;;4.53;62.12
41040;BME280;48586;50.122;18.972;2022-12-05T11:23:46;98872.69;;;4.53;62.35
41040;BME280;48586;50.122;18.972;2022-12-05T11:25:56;98875.16;;;4.54;62.56
41040;BME280;48586;50.122;18.972;2022-12-05T11:28:29;98878.41;;;4.56;62.22
41040;BME280;48586;50.122;18.972;2022-12-05T11:30:36;98867.50;;;4.59;62.36
41040;BME280;48586;50.122;18.972;2022-12-05T11:32:41;98876.03;;;4.61;62.41
41040;BME280;48586;50.122;18.972;2022-12-05T11:34:52;98868.78;;;4.63;61.98
41040;BME280;48586;50.122;18.972;2022-12-05T11:37:09;98875.31;;;4.67;62.03
41040;BME280;48586;50.122;18.972;2022-12-05T11:39:16;98874.75;;;4.72;61.90
41040;BME280;48586;50.122;18.972;2022-12-05T11:41:40;98873.56;;;4.74;61.55
41040;BME280;48586;50.122;18.972;2022-12-05T11:44:21;98884.94;;;4.75;61.63
41040;BME280;48586;50.122;18.972;2022-12-05T11:46:46;98881.66;;;4.73;61.24
41040;BME280;48586;50.122;18.972;2022-12-05T11:49:13;98882.94;;;4.62;61.34